Time;durP1;ratioP1;P1;durP2;ratioP2;P2;SDS_P1;SDS_P2;PMS_P1;PMS_P2;Temp;Humidity;BMP_temperature;BMP_pressure;BME280_temperature;BME280_humidity;BME280_pressure;Samples;Min_cycle;Max_cycle;Signal;HPM_P1;HPM_P2
2022/03/11 00:00:59;;;;;;;13.50;5.35;;;1.30;52.50;;;;;;5019857;28;20034;-64
2022/03/11 00:03:25;;;;;;;11.32;5.38;;;1.30;52.50;;;;;;5020376;28;20037;-64
2022/03/11 00:05:51;;;;;;;11.90;5.60;;;1.30;52.60;;;;;;5019123;28;20386;-64
2022/03/11 00:08:17;;;;;;;13.30;5.35;;;1.30;53.00;;;;;;5019996;28;20025;-64
2022/03/11 00:10:43;;;;;;;10.40;4.80;;;1.30;52.50;;;;;;5020327;28;20041;-65
2022/03/11 00:13:09;;;;;;;12.45;5.32;;;1.20;52.90;;;;;;5014342;28;20715;-65
2022/03/11 00:15:35;;;;;;;10.60;5.38;;;1.30;52.70;;;;;;5019635;28;20077;-65
2022/03/11 00:18:00;;;;;;;10.32;4.80;;;1.30;52.70;;;;;;5019604;28;20041;-66
2022/03/11 00:20:26;;;;;;;10.30;5.88;;;1.30;52.20;;;;;;5019738;28;20045;-66
2022/03/11 00:22:52;;;;;;;11.35;5.38;;;1.20;52.30;;;;;;5019901;28;20057;-66
2022/03/11 00:25:20;;;;;;;15.73;5.35;;;1.30;52.30;;;;;;5019208;28;20611;-66
2022/03/11 00:27:46;;;;;;;10.95;5.40;;;1.20;52.00;;;;;;5019241;28;20067;-66
2022/03/11 00:30:13;;;;;;;10.15;5.63;;;1.10;52.20;;;;;;5020909;28;20038;-66
2022/03/11 00:32:40;;;;;;;11.57;5.20;;;1.20;52.90;;;;;;5020178;28;20037;-66
2022/03/11 00:35:09;;;;;;;12.70;5.15;;;1.20;52.80;;;;;;5019620;28;20115;-65
2022/03/11 00:37:39;;;;;;;11.60;5.28;;;1.20;52.60;;;;;;5015175;28;20095;-63
2022/03/11 00:40:06;;;;;;;14.73;5.82;;;1.00;52.90;;;;;;5022207;28;20053;-64
2022/03/11 00:42:32;;;;;;;12.10;5.90;;;1.00;52.70;;;;;;5023620;28;20409;-65
2022/03/11 00:44:58;;;;;;;14.00;6.07;;;1.00;53.10;;;;;;5024065;28;20038;-65
2022/03/11 00:47:23;;;;;;;11.43;5.55;;;1.00;52.70;;;;;;5023539;28;20108;-64
2022/03/11 00:49:49;;;;;;;13.30;5.05;;;1.00;52.80;;;;;;5023440;28;20034;-64
2022/03/11 00:52:15;;;;;;;15.00;5.93;;;0.90;52.60;;;;;;5024478;28;20037;-64
2022/03/11 00:54:40;;;;;;;9.77;5.35;;;0.90;53.10;;;;;;5023991;28;20037;-64
2022/03/11 00:57:06;;;;;;;12.85;5.63;;;1.00;53.00;;;;;;5023182;28;20120;-65
2022/03/11 00:59:32;;;;;;;14.20;5.55;;;0.90;52.60;;;;;;5023885;28;20200;-64
2022/03/11 01:01:58;;;;;;;15.32;5.28;;;0.90;52.70;;;;;;5023366;28;20033;-65
2022/03/11 01:04:23;;;;;;;12.55;5.07;;;0.90;52.70;;;;;;5023591;28;20170;-66
2022/03/11 01:06:49;;;;;;;8.45;4.68;;;0.80;52.60;;;;;;5022930;28;20040;-65
2022/03/11 01:09:15;;;;;;;11.95;5.30;;;0.80;52.50;;;;;;5023820;28;20492;-65
2022/03/11 01:11:41;;;;;;;13.38;6.38;;;0.80;53.00;;;;;;5023212;28;20045;-65
2022/03/11 01:14:07;;;;;;;10.75;4.82;;;0.80;52.90;;;;;;5023586;28;20567;-65
2022/03/11 01:16:34;;;;;;;10.68;4.97;;;0.70;52.90;;;;;;5023070;28;20041;-65
2022/03/11 01:19:00;;;;;;;14.05;5.88;;;0.80;52.60;;;;;;5023703;28;20037;-66
2022/03/11 01:21:25;;;;;;;11.65;5.32;;;0.70;52.70;;;;;;5020370;28;20076;-65
2022/03/11 01:23:53;;;;;;;12.23;4.95;;;0.80;52.80;;;;;;5023219;28;20073;-65
2022/03/11 01:26:19;;;;;;;10.38;5.50;;;0.70;52.60;;;;;;5019116;28;20029;-65
2022/03/11 01:28:45;;;;;;;12.73;6.40;;;0.80;52.60;;;;;;5023604;28;20025;-65
2022/03/11 01:31:12;;;;;;;14.88;5.43;;;0.70;52.60;;;;;;5022204;28;20156;-65
2022/03/11 01:33:42;;;;;;;14.27;5.47;;;0.60;52.90;;;;;;5022576;28;20096;-65
2022/03/11 01:36:09;;;;;;;13.10;5.22;;;0.60;53.10;;;;;;5023420;28;20095;-66
2022/03/11 01:38:36;;;;;;;12.02;4.93;;;0.70;53.10;;;;;;5022990;28;20289;-64
2022/03/11 01:41:02;;;;;;;12.32;5.68;;;0.60;53.00;;;;;;5022753;28;20575;-65
2022/03/11 01:43:28;;;;;;;12.68;5.68;;;0.60;53.10;;;;;;5022775;28;20049;-64
2022/03/11 01:45:55;;;;;;;15.40;6.57;;;0.60;53.50;;;;;;5023130;28;20072;-65
2022/03/11 01:48:20;;;;;;;11.60;5.22;;;0.60;53.20;;;;;;5022750;28;20037;-64
2022/03/11 01:50:46;;;;;;;14.77;5.72;;;0.60;53.30;;;;;;5022386;28;20033;-65
2022/03/11 01:53:13;;;;;;;15.95;6.00;;;0.60;53.20;;;;;;5022989;28;20051;-64
2022/03/11 01:55:42;;;;;;;14.00;5.32;;;0.60;53.00;;;;;;5021904;28;20029;-64
2022/03/11 01:58:08;;;;;;;14.27;5.78;;;0.50;53.30;;;;;;5022007;28;20501;-64
2022/03/11 02:00:37;;;;;;;14.55;5.82;;;0.60;53.10;;;;;;5022237;28;20643;-66
2022/03/11 02:03:04;;;;;;;14.25;6.40;;;0.50;53.00;;;;;;5019765;28;20037;-65
2022/03/11 02:05:30;;;;;;;9.63;5.53;;;0.40;53.20;;;;;;5020287;28;20033;-65
2022/03/11 02:07:59;;;;;;;12.75;5.45;;;0.40;53.60;;;;;;5020966;28;20032;-65
2022/03/11 02:10:26;;;;;;;11.98;5.45;;;0.30;53.40;;;;;;5020685;28;20048;-65
2022/03/11 02:12:52;;;;;;;11.77;6.07;;;0.30;53.70;;;;;;5022244;28;20052;-65
2022/03/11 02:15:18;;;;;;;14.70;5.90;;;0.30;54.00;;;;;;5022178;28;20049;-65
2022/03/11 02:17:44;;;;;;;13.93;5.68;;;0.30;53.60;;;;;;5021905;28;20504;-64
2022/03/11 02:20:10;;;;;;;13.23;6.05;;;0.30;53.60;;;;;;5022125;28;20069;-65
2022/03/11 02:22:39;;;;;;;16.70;6.03;;;0.30;54.20;;;;;;5019658;28;20693;-65
2022/03/11 02:25:06;;;;;;;14.50;6.15;;;0.20;54.00;;;;;;5021353;28;20029;-64
2022/03/11 02:27:37;;;;;;;15.57;6.43;;;0.20;54.10;;;;;;5022308;28;20056;-65
2022/03/11 02:30:11;;;;;;;13.63;6.00;;;0.30;53.90;;;;;;5022654;28;20033;-65
2022/03/11 02:32:37;;;;;;;12.73;6.13;;;0.20;53.90;;;;;;5022397;28;20040;-65
2022/03/11 02:35:03;;;;;;;11.55;5.65;;;0.20;54.00;;;;;;5022134;28;20029;-65
2022/03/11 02:37:28;;;;;;;15.05;5.40;;;0.30;53.90;;;;;;5021705;28;20478;-65
2022/03/11 02:39:56;;;;;;;18.20;6.35;;;0.20;53.80;;;;;;5021763;28;20030;-64
2022/03/11 02:42:22;;;;;;;14.00;5.43;;;0.20;53.90;;;;;;5024055;28;20079;-64
2022/03/11 02:44:48;;;;;;;14.65;5.55;;;0.10;54.00;;;;;;5022243;28;20033;-64
2022/03/11 02:47:13;;;;;;;12.68;5.35;;;0.10;54.10;;;;;;5019175;28;20060;-64
2022/03/11 02:49:39;;;;;;;12.57;5.85;;;0.00;54.10;;;;;;5021868;28;20056;-64
2022/03/11 02:52:05;;;;;;;15.48;5.95;;;0.00;54.20;;;;;;5021913;28;20033;-64
2022/03/11 02:54:31;;;;;;;13.95;6.38;;;0.00;54.10;;;;;;5021444;28;20025;-64
2022/03/11 02:56:57;;;;;;;15.30;5.55;;;0.00;54.20;;;;;;5021367;28;20033;-64
2022/03/11 02:59:22;;;;;;;12.07;6.07;;;0.00;54.40;;;;;;5021125;28;20527;-64
2022/03/11 03:01:48;;;;;;;14.65;6.20;;;0.00;54.30;;;;;;5020569;28;20029;-64
2022/03/11 03:04:14;;;;;;;13.07;5.97;;;-0.10;54.30;;;;;;5021414;28;20048;-64
2022/03/11 03:06:40;;;;;;;16.15;6.70;;;0.00;54.30;;;;;;5014931;28;20037;-64
2022/03/11 03:09:06;;;;;;;19.25;6.82;;;-0.10;54.40;;;;;;5020525;28;20034;-64
2022/03/11 03:11:34;;;;;;;13.50;6.22;;;-0.20;54.70;;;;;;5020879;28;20550;-64
2022/03/11 03:14:00;;;;;;;12.05;6.18;;;-0.10;54.80;;;;;;5020190;28;20037;-64
2022/03/11 03:16:25;;;;;;;15.43;5.93;;;-0.20;55.10;;;;;;5020436;28;20037;-64
2022/03/11 03:18:51;;;;;;;15.60;5.82;;;-0.10;55.10;;;;;;5020898;28;20045;-64
2022/03/11 03:21:17;;;;;;;14.82;7.40;;;-0.20;54.90;;;;;;5020764;28;20095;-64
2022/03/11 03:23:43;;;;;;;12.38;5.90;;;-0.20;55.70;;;;;;5020570;28;20473;-65
2022/03/11 03:26:08;;;;;;;15.70;5.93;;;-0.20;55.20;;;;;;5034096;28;20030;-70
2022/03/11 03:28:34;;;;;;;14.10;6.63;;;-0.20;55.30;;;;;;5020768;28;20084;-70
2022/03/11 03:31:00;;;;;;;16.92;5.80;;;-0.20;55.30;;;;;;5020692;28;20124;-70
2022/03/11 03:33:26;;;;;;;14.45;6.22;;;-0.20;55.20;;;;;;5017222;28;20041;-70
2022/03/11 03:35:52;;;;;;;15.55;6.72;;;-0.20;54.80;;;;;;5020435;28;20034;-70
2022/03/11 03:38:18;;;;;;;14.10;6.07;;;-0.20;55.20;;;;;;5020369;28;20025;-69
2022/03/11 03:40:44;;;;;;;14.63;6.30;;;-0.30;55.00;;;;;;5019961;28;20389;-69
2022/03/11 03:43:10;;;;;;;20.02;6.90;;;-0.30;55.30;;;;;;5020627;28;20044;-70
2022/03/11 03:45:36;;;;;;;14.57;6.63;;;-0.30;55.30;;;;;;5020190;28;20029;-70
2022/03/11 03:48:01;;;;;;;13.75;5.75;;;-0.30;55.50;;;;;;5019610;28;20029;-70
2022/03/11 03:50:28;;;;;;;19.27;6.90;;;-0.40;55.70;;;;;;5020104;28;20057;-69
2022/03/11 03:52:54;;;;;;;11.05;6.20;;;-0.40;55.70;;;;;;5020332;28;20041;-69
2022/03/11 03:55:19;;;;;;;12.20;6.55;;;-0.40;55.60;;;;;;5019494;28;20056;-70
2022/03/11 03:57:45;;;;;;;19.13;7.10;;;-0.40;55.40;;;;;;5020298;28;20037;-71
2022/03/11 04:00:13;;;;;;;17.33;6.53;;;-0.40;55.50;;;;;;5015493;28;20034;-71
2022/03/11 04:02:47;;;;;;;16.02;6.57;;;-0.50;55.70;;;;;;5020919;28;20052;-70
2022/03/11 04:05:14;;;;;;;15.18;6.03;;;-0.50;56.10;;;;;;5016547;28;20041;-69
2022/03/11 04:07:44;;;;;;;15.70;6.30;;;-0.50;55.90;;;;;;5021092;28;20037;-70
2022/03/11 04:10:11;;;;;;;14.00;6.00;;;-0.40;56.00;;;;;;5017264;28;20386;-70
2022/03/11 04:12:36;;;;;;;21.20;6.80;;;-0.50;56.00;;;;;;5021271;28;20068;-69
2022/03/11 04:15:03;;;;;;;17.02;6.60;;;-0.60;56.20;;;;;;5022864;28;20715;-69
2022/03/11 04:17:29;;;;;;;15.57;7.22;;;-0.60;56.40;;;;;;5024250;28;20033;-69
2022/03/11 04:19:54;;;;;;;15.07;7.07;;;-0.60;55.90;;;;;;5024729;28;20796;-68
2022/03/11 04:22:20;;;;;;;15.10;6.68;;;-0.60;56.30;;;;;;5024959;28;20080;-69
2022/03/11 04:24:46;;;;;;;13.68;6.03;;;-0.70;56.40;;;;;;5024373;28;20169;-69
2022/03/11 04:27:12;;;;;;;17.48;6.90;;;-0.70;56.50;;;;;;5024176;28;20034;-69
2022/03/11 04:29:38;;;;;;;15.20;6.28;;;-0.70;56.70;;;;;;5023609;28;20144;-69
2022/03/11 04:32:05;;;;;;;17.17;6.63;;;-0.70;56.60;;;;;;5023071;28;20506;-69
2022/03/11 04:34:32;;;;;;;14.63;6.80;;;-0.70;56.50;;;;;;5023749;28;20043;-69
2022/03/11 04:36:57;;;;;;;13.25;6.13;;;-0.80;57.00;;;;;;5022568;28;20038;-69
2022/03/11 04:39:26;;;;;;;17.10;6.75;;;-0.80;56.90;;;;;;5019891;28;20110;-69
2022/03/11 04:41:56;;;;;;;16.95;6.20;;;-0.80;56.90;;;;;;5022237;28;20037;-69
2022/03/11 04:44:22;;;;;;;13.32;6.53;;;-0.80;56.90;;;;;;5026179;28;20038;-69
2022/03/11 04:46:48;;;;;;;16.60;6.50;;;-0.80;57.10;;;;;;5021433;28;20079;-68
2022/03/11 04:49:14;;;;;;;15.80;6.95;;;-0.80;57.10;;;;;;5023421;28;20803;-68
2022/03/11 04:51:40;;;;;;;16.55;7.10;;;-0.80;56.80;;;;;;5023518;28;20643;-69
2022/03/11 04:54:06;;;;;;;18.00;7.28;;;-0.80;57.20;;;;;;5022858;28;20048;-70
2022/03/11 04:56:36;;;;;;;16.30;6.60;;;-0.80;57.00;;;;;;5023095;28;20037;-70
2022/03/11 04:59:02;;;;;;;18.92;6.97;;;-0.80;57.40;;;;;;5022482;28;20045;-69
2022/03/11 05:01:28;;;;;;;14.45;7.68;;;-0.80;56.90;;;;;;5022822;28;20052;-69
2022/03/11 05:03:53;;;;;;;16.05;6.55;;;-0.90;57.20;;;;;;5023329;28;20040;-69
2022/03/11 05:06:19;;;;;;;15.60;6.05;;;-0.90;57.20;;;;;;5022752;28;20029;-70
2022/03/11 05:08:45;;;;;;;17.33;7.10;;;-0.90;57.50;;;;;;5023206;28;20585;-69
2022/03/11 05:11:11;;;;;;;16.67;7.72;;;-0.90;57.20;;;;;;5023076;28;20041;-69
2022/03/11 05:13:37;;;;;;;18.50;7.28;;;-1.00;57.30;;;;;;5023619;28;20863;-70
2022/03/11 05:16:03;;;;;;;18.17;6.93;;;-1.00;57.40;;;;;;5022287;28;20048;-69
2022/03/11 05:18:28;;;;;;;15.95;6.28;;;-1.00;57.50;;;;;;5022938;28;20038;-69
2022/03/11 05:20:54;;;;;;;21.40;7.72;;;-1.00;57.30;;;;;;5022654;28;20030;-70
2022/03/11 05:23:21;;;;;;;21.88;7.97;;;-1.10;57.70;;;;;;5022835;28;20631;-69
2022/03/11 05:25:47;;;;;;;17.20;6.75;;;-1.00;57.40;;;;;;5022102;28;20115;-70
2022/03/11 05:28:13;;;;;;;17.10;6.63;;;-1.00;57.50;;;;;;5023550;28;20048;-69
2022/03/11 05:30:38;;;;;;;17.23;6.53;;;-1.00;57.60;;;;;;5022501;28;20045;-70
2022/03/11 05:33:05;;;;;;;19.17;7.32;;;-1.00;57.60;;;;;;5023068;28;20124;-70
2022/03/11 05:35:31;;;;;;;17.15;6.68;;;-1.00;57.40;;;;;;5021135;28;20068;-70
2022/03/11 05:37:56;;;;;;;17.08;7.35;;;-0.90;57.40;;;;;;5022457;28;20036;-69
2022/03/11 05:40:22;;;;;;;16.80;7.53;;;-0.90;57.60;;;;;;5023123;28;20045;-69
2022/03/11 05:42:48;;;;;;;18.08;7.22;;;-0.90;57.50;;;;;;5022886;28;20033;-69
2022/03/11 05:45:14;;;;;;;15.77;6.68;;;-0.80;57.30;;;;;;5021847;28;20393;-69
2022/03/11 05:47:40;;;;;;;19.92;7.60;;;-0.80;57.20;;;;;;5022331;28;20025;-69
2022/03/11 05:50:06;;;;;;;14.32;7.07;;;-0.80;56.80;;;;;;5023122;28;20038;-69
2022/03/11 05:52:38;;;;;;;21.35;8.38;;;-0.80;56.80;;;;;;5018962;28;20047;-69
2022/03/11 05:55:05;;;;;;;15.70;6.55;;;-0.70;56.70;;;;;;5022767;28;20029;-69
2022/03/11 05:57:30;;;;;;;16.23;6.93;;;-0.80;56.50;;;;;;5021335;28;20655;-70
2022/03/11 05:59:56;;;;;;;20.02;7.95;;;-0.80;56.70;;;;;;5021885;28;20086;-70
2022/03/11 06:02:22;;;;;;;15.88;7.72;;;-0.70;56.90;;;;;;5025557;28;20115;-70
2022/03/11 06:04:48;;;;;;;19.67;7.90;;;-0.60;56.80;;;;;;5022431;28;20036;-70
2022/03/11 06:07:14;;;;;;;17.50;8.15;;;-0.60;56.20;;;;;;5021710;28;20029;-69
2022/03/11 06:09:40;;;;;;;25.08;7.85;;;-0.60;55.90;;;;;;5021929;28;20037;-69
2022/03/11 06:12:06;;;;;;;20.83;7.30;;;-0.60;56.30;;;;;;5021848;28;20088;-70
2022/03/11 06:14:32;;;;;;;17.02;8.23;;;-0.60;56.00;;;;;;5021571;28;20047;-69
2022/03/11 06:16:58;;;;;;;22.10;8.20;;;-0.50;55.80;;;;;;5021218;28;20047;-70
2022/03/11 06:19:23;;;;;;;19.08;7.78;;;-0.50;55.80;;;;;;5022170;28;20111;-69
2022/03/11 06:21:49;;;;;;;16.60;6.30;;;-0.50;56.10;;;;;;5020609;28;20087;-69
2022/03/11 06:24:15;;;;;;;15.27;7.07;;;-0.60;55.40;;;;;;5021812;28;20100;-69
2022/03/11 06:26:41;;;;;;;15.98;6.55;;;-0.50;55.70;;;;;;5020911;28;20826;-69
2022/03/11 06:29:10;;;;;;;19.88;7.30;;;-0.50;55.50;;;;;;5021388;28;20029;-70
2022/03/11 06:31:36;;;;;;;18.80;7.55;;;-0.40;55.20;;;;;;5022242;28;20025;-70
2022/03/11 06:34:02;;;;;;;19.20;7.18;;;-0.40;54.90;;;;;;5022087;28;20668;-70
2022/03/11 06:36:28;;;;;;;15.00;7.18;;;-0.30;54.90;;;;;;5020420;28;20041;-70
2022/03/11 06:38:55;;;;;;;17.42;7.43;;;-0.40;55.00;;;;;;5019867;28;20902;-69
2022/03/11 06:41:22;;;;;;;16.60;7.28;;;-0.30;54.70;;;;;;5021800;28;20441;-69
2022/03/11 06:43:47;;;;;;;19.35;7.10;;;-0.20;54.60;;;;;;5024975;28;20033;-69
2022/03/11 06:46:18;;;;;;;18.50;8.23;;;-0.20;54.20;;;;;;5020394;28;20029;-69
2022/03/11 06:48:43;;;;;;;15.52;7.20;;;-0.20;53.90;;;;;;5021520;28;20048;-69
2022/03/11 06:51:11;;;;;;;14.52;6.97;;;-0.10;53.80;;;;;;5021684;28;20040;-69
2022/03/11 06:53:37;;;;;;;20.83;7.47;;;-0.10;53.70;;;;;;5021666;28;20040;-70
2022/03/11 06:56:04;;;;;;;19.08;8.10;;;-0.10;53.70;;;;;;5021264;28;20034;-69
2022/03/11 06:58:31;;;;;;;15.85;6.93;;;0.00;53.20;;;;;;5017557;28;20211;-69
2022/03/11 07:00:57;;;;;;;15.95;7.57;;;0.00;53.50;;;;;;5021724;28;20534;-69
2022/03/11 07:03:23;;;;;;;18.20;6.80;;;0.20;52.80;;;;;;5021728;28;20079;-69
2022/03/11 07:05:48;;;;;;;19.20;7.63;;;0.30;52.70;;;;;;5021025;28;20838;-69
2022/03/11 07:08:15;;;;;;;18.55;7.07;;;0.30;52.40;;;;;;5021531;28;20572;-69
2022/03/11 07:10:41;;;;;;;17.58;6.63;;;0.40;52.20;;;;;;5021534;28;20048;-69
2022/03/11 07:13:07;;;;;;;19.20;7.05;;;0.50;51.90;;;;;;5020908;28;20033;-70
2022/03/11 07:15:33;;;;;;;19.13;7.25;;;0.50;51.20;;;;;;5020929;28;20122;-69
2022/03/11 07:17:58;;;;;;;15.80;7.32;;;0.50;51.20;;;;;;5021070;28;20029;-69
2022/03/11 07:20:24;;;;;;;15.77;7.30;;;0.60;50.80;;;;;;5021151;28;20037;-68
2022/03/11 07:22:50;;;;;;;13.10;6.10;;;0.60;51.30;;;;;;5021820;28;20056;-69
2022/03/11 07:25:17;;;;;;;15.32;6.47;;;0.70;50.50;;;;;;5020860;28;20025;-70
2022/03/11 07:27:45;;;;;;;13.48;6.47;;;0.80;49.80;;;;;;5021322;28;20030;-69
2022/03/11 07:30:11;;;;;;;17.95;7.88;;;0.90;49.90;;;;;;5020565;28;20037;-70
2022/03/11 07:32:38;;;;;;;16.08;6.93;;;1.20;49.60;;;;;;5021097;28;20043;-70
2022/03/11 07:35:14;;;;;;;16.67;7.00;;;2.00;47.90;;;;;;5020734;28;20072;-70
2022/03/11 07:37:40;;;;;;;16.90;7.15;;;5.10;42.30;;;;;;5020162;28;20033;-65
2022/03/11 07:40:08;;;;;;;18.08;8.68;;;7.20;36.10;;;;;;5023472;28;20492;-65
2022/03/11 07:42:35;;;;;;;16.00;7.03;;;8.80;33.60;;;;;;5020571;28;20026;-66
2022/03/11 07:45:02;;;;;;;15.48;7.72;;;9.80;30.90;;;;;;5020652;28;20033;-65
2022/03/11 07:47:28;;;;;;;15.15;7.30;;;10.50;30.30;;;;;;5018717;28;20516;-66
2022/03/11 07:49:54;;;;;;;16.23;7.30;;;9.80;30.10;;;;;;5024115;28;20029;-65
2022/03/11 07:52:22;;;;;;;16.02;7.10;;;8.80;31.30;;;;;;5024138;28;20092;-64
2022/03/11 07:54:48;;;;;;;13.45;6.40;;;8.30;32.80;;;;;;5024372;28;20140;-65
2022/03/11 07:57:14;;;;;;;18.05;7.90;;;8.50;32.40;;;;;;5023712;28;20033;-65
2022/03/11 07:59:41;;;;;;;15.00;6.72;;;9.00;32.10;;;;;;5023909;28;20167;-64
2022/03/11 08:02:07;;;;;;;17.35;6.95;;;8.70;31.50;;;;;;5023779;28;20041;-64
2022/03/11 08:04:33;;;;;;;14.48;6.70;;;8.40;32.20;;;;;;5024390;28;20030;-64
2022/03/11 08:07:01;;;;;;;18.85;7.47;;;8.90;32.00;;;;;;5023530;28;20034;-65
2022/03/11 08:09:28;;;;;;;15.48;7.60;;;9.40;30.70;;;;;;5024714;28;20774;-65
2022/03/11 08:11:54;;;;;;;14.50;6.43;;;9.40;30.40;;;;;;5024661;28;20041;-65
2022/03/11 08:14:20;;;;;;;13.75;6.97;;;9.50;30.00;;;;;;5024220;28;20052;-65
2022/03/11 08:16:48;;;;;;;16.00;6.90;;;9.80;30.10;;;;;;5023988;28;20034;-65
2022/03/11 08:19:14;;;;;;;14.45;6.75;;;9.90;29.50;;;;;;5024582;28;20036;-65
2022/03/11 08:21:40;;;;;;;15.70;6.55;;;10.00;29.40;;;;;;5020773;28;20057;-65
2022/03/11 08:24:06;;;;;;;16.58;6.78;;;8.90;30.00;;;;;;5022133;28;20045;-65
2022/03/11 08:26:32;;;;;;;13.32;6.35;;;7.40;32.90;;;;;;5024397;28;20045;-66
2022/03/11 08:28:59;;;;;;;14.80;6.97;;;6.60;34.40;;;;;;5023941;28;20029;-65
2022/03/11 08:31:25;;;;;;;13.98;5.97;;;6.00;35.10;;;;;;5024722;28;20408;-64
2022/03/11 08:33:51;;;;;;;14.30;6.70;;;6.00;35.10;;;;;;5024397;28;20048;-64
2022/03/11 08:36:16;;;;;;;12.85;6.07;;;5.90;35.60;;;;;;5023967;28;20787;-65
2022/03/11 08:38:46;;;;;;;16.73;6.75;;;5.80;35.70;;;;;;5024704;28;20405;-64
2022/03/11 08:41:11;;;;;;;16.45;6.45;;;5.70;35.60;;;;;;5024375;28;20088;-64
2022/03/11 08:43:38;;;;;;;13.60;6.63;;;5.60;36.60;;;;;;5023805;28;20132;-65
2022/03/11 08:46:07;;;;;;;11.45;5.75;;;5.60;36.00;;;;;;5023492;28;20112;-64
2022/03/11 08:48:34;;;;;;;11.38;5.78;;;5.50;35.30;;;;;;5023964;28;20037;-65
2022/03/11 08:50:59;;;;;;;13.95;5.95;;;5.50;35.30;;;;;;5023699;28;20117;-64
2022/03/11 08:53:25;;;;;;;18.95;6.70;;;5.90;34.20;;;;;;5023631;28;20129;-65
2022/03/11 08:55:51;;;;;;;11.25;5.68;;;6.40;34.10;;;;;;5023646;28;20063;-65
2022/03/11 08:58:16;;;;;;;13.35;6.10;;;6.60;33.40;;;;;;5023216;28;20870;-64
2022/03/11 09:00:44;;;;;;;13.45;6.18;;;6.60;33.40;;;;;;5023324;28;20033;-64
2022/03/11 09:03:10;;;;;;;14.00;6.85;;;6.10;34.80;;;;;;5023136;28;20136;-64
2022/03/11 09:05:37;;;;;;;14.73;5.70;;;6.90;33.40;;;;;;5023014;28;20063;-64
2022/03/11 09:08:03;;;;;;;18.25;7.03;;;9.50;29.70;;;;;;5023058;28;20397;-65
2022/03/11 09:10:29;;;;;;;13.90;6.57;;;11.60;27.60;;;;;;5023451;28;20505;-65
2022/03/11 09:12:55;;;;;;;15.13;6.32;;;12.90;25.90;;;;;;5022774;28;20037;-65
2022/03/11 09:15:30;;;;;;;12.57;6.65;;;15.60;24.00;;;;;;5022676;28;20077;-67
2022/03/11 09:17:57;;;;;;;;;;;17.00;22.40;;;;;;5023694;28;20049;-64
2022/03/11 09:20:24;;;;;;;12.95;6.03;;;16.20;23.00;;;;;;5022836;28;20042;-63
2022/03/11 09:22:51;;;;;;;11.10;5.97;;;16.70;23.00;;;;;;5021099;28;20033;-65
2022/03/11 09:25:18;;;;;;;14.60;6.60;;;18.30;22.30;;;;;;5022523;28;20556;-66
2022/03/11 09:27:45;;;;;;;16.83;6.72;;;19.90;20.70;;;;;;5021903;28;20029;-65
2022/03/11 09:30:11;;;;;;;12.90;6.97;;;21.20;19.70;;;;;;5022547;28;20453;-63
2022/03/11 09:32:37;;;;;;;15.38;7.18;;;19.30;20.70;;;;;;5023524;28;20063;-64
2022/03/11 09:35:07;;;;;;;12.02;5.32;;;17.00;22.30;;;;;;5021002;28;20986;-66
2022/03/11 09:37:34;;;;;;;13.32;6.80;;;14.00;24.20;;;;;;5022608;28;20060;-64
2022/03/11 09:39:59;;;;;;;14.38;6.75;;;11.10;26.50;;;;;;5022587;28;20022;-64
2022/03/11 09:42:25;;;;;;;11.57;6.93;;;9.40;28.40;;;;;;5022188;28;20078;-65
2022/03/11 09:44:53;;;;;;;13.93;6.00;;;8.80;29.40;;;;;;5022076;28;20112;-65
2022/03/11 09:47:19;;;;;;;12.48;5.95;;;10.30;28.10;;;;;;5021882;28;20427;-64
2022/03/11 09:49:47;;;;;;;11.25;6.63;;;10.10;28.30;;;;;;5019862;28;20061;-64
2022/03/11 09:52:15;;;;;;;16.70;7.80;;;9.10;28.60;;;;;;5017611;28;20042;-64
2022/03/11 09:54:41;;;;;;;15.65;6.60;;;9.00;29.60;;;;;;5021271;28;20152;-64
2022/03/11 09:57:07;;;;;;;13.20;5.72;;;11.80;26.80;;;;;;5016185;28;20144;-65
2022/03/11 09:59:34;;;;;;;15.07;6.38;;;14.50;24.80;;;;;;5018653;28;20044;-65
2022/03/11 10:02:00;;;;;;;11.82;5.78;;;15.20;23.70;;;;;;5021655;28;20033;-64
2022/03/11 10:04:26;;;;;;;14.05;6.43;;;14.90;23.80;;;;;;5021083;28;20449;-64
2022/03/11 10:06:52;;;;;;;14.45;6.03;;;14.30;23.80;;;;;;5019426;28;20033;-64
2022/03/11 10:09:17;;;;;;;13.80;5.57;;;13.50;24.00;;;;;;5021065;28;20774;-70
2022/03/11 10:11:46;;;;;;;12.20;6.00;;;14.20;23.50;;;;;;5019374;28;20036;-65
2022/03/11 10:14:12;;;;;;;13.13;6.13;;;16.20;22.80;;;;;;5021734;28;20040;-65
2022/03/11 10:16:40;;;;;;;13.23;6.45;;;18.70;21.40;;;;;;5021519;28;20048;-65
2022/03/11 10:19:07;;;;;;;13.77;6.18;;;18.50;20.60;;;;;;5017928;28;20172;-66
2022/03/11 10:21:38;;;;;;;13.02;6.15;;;17.30;21.50;;;;;;5021508;28;20044;-65
2022/03/11 10:24:11;;;;;;;12.80;5.95;;;17.80;21.30;;;;;;5020813;28;20037;-64
2022/03/11 10:27:01;;;;;;;12.52;7.03;;;19.60;20.40;;;;;;5020762;28;20041;-65
2022/03/11 10:29:32;;;;;;;10.55;6.30;;;20.60;19.60;;;;;;5020683;28;20112;-65
2022/03/11 10:31:59;;;;;;;12.45;6.50;;;21.00;19.20;;;;;;5021201;28;20136;-64
2022/03/11 10:34:30;;;;;;;13.32;5.95;;;21.00;19.10;;;;;;5021119;28;20038;-64
2022/03/11 10:36:58;;;;;;;14.18;7.18;;;21.80;18.80;;;;;;5019996;28;20064;-65
2022/03/11 10:39:32;;;;;;;13.90;6.50;;;22.00;19.10;;;;;;5021990;28;20095;-64
2022/03/11 10:42:24;;;;;;;10.20;6.10;;;23.40;18.40;;;;;;5020981;28;20029;-65
2022/03/11 10:45:04;;;;;;;11.75;7.32;;;23.50;18.00;;;;;;5020077;28;20067;-65
2022/03/11 10:47:31;;;;;;;12.27;6.93;;;21.90;18.60;;;;;;5018642;28;20033;-65
2022/03/11 10:50:01;;;;;;;12.35;6.65;;;21.70;18.20;;;;;;5021788;28;20060;-66
2022/03/11 10:52:32;;;;;;;16.10;6.97;;;22.50;18.40;;;;;;5021372;28;20044;-66
2022/03/11 10:54:59;;;;;;;11.77;6.32;;;23.20;18.00;;;;;;5021921;28;20140;-65
2022/03/11 10:57:36;;;;;;;13.75;6.40;;;23.60;18.00;;;;;;5021293;28;20029;-63
2022/03/11 11:00:26;;;;;;;15.88;7.65;;;24.80;17.60;;;;;;5019592;28;20048;-67
2022/03/11 11:02:57;;;;;;;11.88;6.32;;;25.60;17.10;;;;;;5021597;28;20034;-65
2022/03/11 11:05:24;;;;;;;12.90;6.18;;;24.90;16.90;;;;;;5021084;28;20672;-65
2022/03/11 11:07:51;;;;;;;16.25;6.88;;;23.10;17.20;;;;;;5021265;28;20037;-65
2022/03/11 11:10:20;;;;;;;12.93;7.10;;;22.80;17.80;;;;;;5021075;28;20040;-66
2022/03/11 11:12:47;;;;;;;10.55;6.68;;;23.10;18.10;;;;;;5021586;28;20818;-65
2022/03/11 11:15:14;;;;;;;13.63;6.25;;;23.10;17.80;;;;;;5021178;28;20163;-65
2022/03/11 11:17:42;;;;;;;11.55;6.13;;;22.30;17.60;;;;;;5020659;28;20033;-65
2022/03/11 11:20:33;;;;;;;12.70;6.50;;;21.20;18.50;;;;;;5021346;28;20662;-65
2022/03/11 11:23:03;;;;;;;10.95;6.40;;;18.10;20.30;;;;;;5019134;28;20045;-65
2022/03/11 11:25:30;;;;;;;13.63;6.10;;;13.50;23.80;;;;;;5019813;28;20713;-65
2022/03/11 11:28:02;;;;;;;12.35;6.32;;;11.00;25.80;;;;;;5020347;28;20513;-65
2022/03/11 11:30:28;;;;;;;9.82;5.38;;;9.90;26.60;;;;;;5016358;28;20091;-68
2022/03/11 11:32:55;;;;;;;13.52;6.57;;;9.20;27.20;;;;;;5019409;28;20110;-65
2022/03/11 11:35:31;;;;;;;11.93;6.10;;;8.90;28.00;;;;;;5019143;28;20041;-66
2022/03/11 11:38:03;;;;;;;11.73;5.88;;;8.50;27.90;;;;;;5019388;28;20037;-65
2022/03/11 11:40:36;;;;;;;15.70;7.05;;;8.30;28.10;;;;;;5019769;28;20041;-65
2022/03/11 11:43:30;;;;;;;14.57;6.45;;;8.20;28.50;;;;;;5019242;28;20037;-64
2022/03/11 11:46:04;;;;;;;10.30;5.28;;;8.10;29.10;;;;;;5016971;28;20573;-65
2022/03/11 11:48:32;;;;;;;12.32;5.88;;;8.20;28.80;;;;;;5019896;28;20482;-65
2022/03/11 11:51:04;;;;;;;12.02;5.70;;;8.10;28.40;;;;;;5020327;28;20037;-65
2022/03/11 11:53:32;;;;;;;12.20;5.95;;;8.10;28.50;;;;;;5016942;28;20071;-64
2022/03/11 11:55:59;;;;;;;13.35;5.78;;;8.20;28.60;;;;;;5018907;28;20119;-65
2022/03/11 11:58:25;;;;;;;12.45;5.80;;;8.20;28.50;;;;;;5020254;28;20037;-65
2022/03/11 12:00:55;;;;;;;11.60;6.22;;;8.20;28.60;;;;;;5019985;28;20063;-65
2022/03/11 12:03:47;;;;;;;11.82;5.65;;;8.10;29.00;;;;;;5020622;28;20144;-66
2022/03/11 12:06:55;;;;;;;10.85;5.55;;;8.10;28.40;;;;;;5018604;28;20053;-70
2022/03/11 12:09:42;;;;;;;13.88;5.53;;;8.30;28.90;;;;;;5017298;28;20021;-68
2022/03/11 12:12:32;;;;;;;11.15;5.22;;;8.40;27.40;;;;;;5019528;28;20037;-69
2022/03/11 12:15:08;;;;;;;10.73;5.25;;;8.10;27.30;;;;;;5018065;28;20636;-67
2022/03/11 12:17:46;;;;;;;16.58;5.90;;;8.10;28.10;;;;;;5019060;28;20045;-66
2022/03/11 12:20:45;;;;;;;10.85;4.70;;;8.10;28.40;;;;;;5016231;28;20448;-65
2022/03/11 12:23:14;;;;;;;12.30;4.75;;;8.10;28.30;;;;;;5016720;28;20037;-65
2022/03/11 12:25:39;;;;;;;11.95;6.25;;;8.10;28.10;;;;;;5019970;28;20037;-65
2022/03/11 12:28:24;;;;;;;8.98;4.80;;;8.20;28.80;;;;;;5020383;28;20036;-65
2022/03/11 12:30:50;;;;;;;11.80;5.32;;;8.40;28.30;;;;;;5017842;28;20045;-65
2022/03/11 12:33:21;;;;;;;12.13;5.28;;;8.60;27.90;;;;;;5022233;28;20041;-65
2022/03/11 12:35:51;;;;;;;11.25;5.72;;;8.60;27.60;;;;;;5022159;28;20063;-65
2022/03/11 12:38:21;;;;;;;10.60;5.10;;;8.60;28.00;;;;;;5024350;28;20037;-65
2022/03/11 12:40:48;;;;;;;10.63;4.78;;;8.50;27.80;;;;;;5020809;28;20042;-67
2022/03/11 12:43:16;;;;;;;9.93;4.05;;;8.50;27.20;;;;;;5023954;28;20041;-68
2022/03/11 12:45:47;;;;;;;10.88;5.00;;;8.50;26.90;;;;;;5024066;28;20041;-66